South Wardsboro, Vermont
Current Conditions -  °F | °C
As of 4:04 AM on Friday 24 Oct 2014 (Local Time) from KDDH Reporting Station
Light Rain Light Rain  
Wind Chill: 40°   Ceiling: 1700
Heat Index: 43°   Visibility: 10mi
Dew Point: 41°   Wind: 5mph
Humidity: 93%   Direction: 310°NW
Pressure: 29.78"   Gusts: NA
Location:  43.0205°N, 72.8064°W
Report Text: KDDH 240804Z AUTO 31004KT 10SM -RA FEW009 BKN017 OVC035 06/05 A2978 RMK AO2 P0000 T00610050
Loading
Personal Weather Stations






























Interactive Weather Map New forecast layout! Learn more

10-Day Weather Forecast

Advertisements
Track Severe Weather on mobile